Wattsville, Virginia
Current Conditions -  °F | °C
As of 4:29 AM on Monday 24 Nov 2014 (Local Time) from KWAL Reporting Station
Moderate Rain Moderate Rain  
Wind Chill: 60°   Ceiling: 300
Heat Index: 60°   Visibility: 2mi
Dew Point: 60°   Wind: 26mph
Humidity: 100%   Direction: 210°SSW
Pressure: 29.79"   Gusts: 32mph
Location:  37.93°N, 75.5°W
Report Text: KWAL 240929Z AUTO 21023G28KT 2SM RA BR BKN003 OVC010 16/16 A2979 RMK AO2 PK WND 20030/0905 P0008 T01560156
Loading
Personal Weather Stations






























Interactive Weather Map New forecast layout! Learn more

10-Day Weather Forecast

Advertisements
Track Severe Weather on mobile